Orbital elements of SL-16 DEB
| Launched | 24 December 1992 |
| Flight ended | – |
| Launch site | Tyuratam Missile and Space Center, Kazakhstan (Also known as Baikonur Cosmodrome) |
| Owner | Commonwealth of Independent States (former USSR) |
| NORAD ID | 22425 |
| Date fetched |
Epoch osculation |
Inc. [°] |
Ecc. | RA asc node [hr] |
Arg Peri. [°] |
Mean anom [°] |
Mean motion [rev/day] |
Abs. mag |
| Date fetched |
Epoch osculation |
Inc. [°] |
Ecc. | RA asc node [hr] |
Arg Peri. [°] |
Mean anom [°] |
Mean motion [rev/day] |
Abs. mag |
| 2026 May 06 17:57 | 2026 May 05 04:32:19 | 71.1767 | 0.01129 | 19.8798 | 300.0071 | 170.5721 | 13.95125 | – |
| 2026 May 05 17:57 | 2026 May 05 04:32:19 | 71.1767 | 0.01129 | 19.8798 | 300.0071 | 170.5721 | 13.95125 | – |
| 2026 May 04 17:57 | 2026 Apr 30 14:09:14 | 71.1768 | 0.01128 | 20.4974 | 306.8309 | 170.5721 | 13.95125 | – |
| 2026 May 03 17:57 | 2026 Apr 30 14:09:14 | 71.1768 | 0.01128 | 20.4974 | 306.8309 | 170.5721 | 13.95125 | – |
| 2026 May 02 17:57 | 2026 Apr 30 14:09:14 | 71.1768 | 0.01128 | 20.4974 | 306.8309 | 170.5721 | 13.95125 | – |
| 2026 May 01 17:56 | 2026 Apr 30 14:09:14 | 71.1768 | 0.01128 | 20.4974 | 306.8309 | 170.5721 | 13.95125 | – |
| 2026 Apr 30 17:56 | 2026 Apr 30 14:09:14 | 71.1768 | 0.01128 | 20.4974 | 306.8309 | 170.5721 | 13.95125 | – |
| 2026 Apr 29 17:57 | 2026 Apr 24 00:21:05 | 71.1774 | 0.01127 | 21.3804 | 316.5825 | 170.5721 | 13.95125 | – |
| 2026 Apr 28 17:56 | 2026 Apr 24 00:21:05 | 71.1774 | 0.01127 | 21.3804 | 316.5825 | 170.5721 | 13.95125 | – |
| 2026 Apr 27 17:58 | 2026 Apr 24 00:21:05 | 71.1774 | 0.01127 | 21.3804 | 316.5825 | 170.5721 | 13.95125 | – |
| 2026 Apr 26 17:58 | 2026 Apr 24 00:21:05 | 71.1774 | 0.01127 | 21.3804 | 316.5825 | 170.5721 | 13.95125 | – |
| 2026 Apr 25 17:58 | 2026 Apr 24 00:21:05 | 71.1774 | 0.01127 | 21.3804 | 316.5825 | 170.5721 | 13.95125 | – |
| 2026 Apr 24 17:59 | 2026 Apr 24 00:21:05 | 71.1774 | 0.01127 | 21.3804 | 316.5825 | 170.5721 | 13.95125 | – |
| 2026 Apr 23 17:57 | 2026 Apr 19 01:33:43 | 71.1782 | 0.01125 | 22.0450 | 323.9194 | 170.5721 | 13.95125 | – |
| 2026 Apr 22 17:57 | 2026 Apr 19 01:33:43 | 71.1782 | 0.01125 | 22.0450 | 323.9194 | 170.5721 | 13.95125 | – |
| 2026 Apr 21 17:57 | 2026 Apr 19 01:33:43 | 71.1782 | 0.01125 | 22.0450 | 323.9194 | 170.5721 | 13.95125 | – |
| 2026 Apr 20 17:57 | 2026 Apr 19 01:33:43 | 71.1782 | 0.01125 | 22.0450 | 323.9194 | 170.5721 | 13.95125 | – |
| 2026 Apr 19 17:58 | 2026 Apr 19 01:33:43 | 71.1782 | 0.01125 | 22.0450 | 323.9194 | 170.5721 | 13.95125 | – |
| 2026 Apr 18 17:56 | 2026 Apr 13 00:47:57 | 71.1790 | 0.01124 | 22.8549 | 332.8550 | 170.5721 | 13.95125 | – |
| 2026 Apr 16 17:57 | 2026 Apr 13 00:47:57 | 71.1790 | 0.01124 | 22.8549 | 332.8550 | 170.5721 | 13.95125 | – |
| 2026 Apr 14 17:57 | 2026 Apr 13 00:47:57 | 71.1790 | 0.01124 | 22.8549 | 332.8550 | 170.5721 | 13.95125 | – |
| 2026 Apr 13 17:57 | 2026 Apr 13 00:47:57 | 71.1790 | 0.01124 | 22.8549 | 332.8550 | 170.5721 | 13.95125 | – |
| 2026 Apr 12 17:57 | 2026 Apr 08 11:01:44 | 71.1797 | 0.01122 | 23.4690 | 339.6342 | 170.5721 | 13.95125 | – |
| 2026 Apr 11 17:57 | 2026 Apr 08 11:01:44 | 71.1797 | 0.01122 | 23.4690 | 339.6342 | 170.5721 | 13.95125 | – |
| 2026 Apr 10 17:58 | 2026 Apr 08 11:01:44 | 71.1797 | 0.01122 | 23.4690 | 339.6342 | 170.5721 | 13.95125 | – |
| 2026 Apr 09 18:01 | 2026 Apr 08 11:01:44 | 71.1797 | 0.01122 | 23.4690 | 339.6342 | 170.5721 | 13.95125 | – |